Terminal Aerodrome Forecast
Issued by NWS Pocatello, ID

Home | Current Version | Previous Version | Text Only | Print | Product List | Glossary On
Versions: 1 2 3 4 5 6 7 8 9 10 11 12
998
FTUS45 KPIH 290520
TAFIDA
TAF
KIDA 290520Z 2906/3006 VRB06KT P6SM -SHRA VCTS SCT060 BKN090CB
     FM290900 VRB06KT P6SM VCSH SCT060 BKN090
     FM291600 20011G20KT P6SM -SHRA VCTS BKN040CB
     FM300200 17009KT P6SM VCSH SCT040 BKN080=

USA.gov is the U.S. government's official web portal to all federal, state and local government web resources and services.